sensor_id;sensor_type;location;lat;lon;timestamp;P1;durP1;ratioP1;P2;durP2;ratioP2
84140;SDS011;74257;52.540;13.416;2023-12-14T00:02:09;8.23;;;4.90;;
84140;SDS011;74257;52.540;13.416;2023-12-14T00:04:35;9.02;;;4.63;;
84140;SDS011;74257;52.540;13.416;2023-12-14T00:07:00;7.57;;;4.95;;
84140;SDS011;74257;52.540;13.416;2023-12-14T00:09:26;9.68;;;5.18;;
84140;SDS011;74257;52.540;13.416;2023-12-14T00:11:52;9.30;;;4.95;;
84140;SDS011;74257;52.540;13.416;2023-12-14T00:14:18;9.27;;;4.90;;
84140;SDS011;74257;52.540;13.416;2023-12-14T00:16:43;8.02;;;5.20;;
84140;SDS011;74257;52.540;13.416;2023-12-14T00:19:09;9.38;;;5.75;;
84140;SDS011;74257;52.540;13.416;2023-12-14T00:21:35;8.50;;;4.82;;
84140;SDS011;74257;52.540;13.416;2023-12-14T00:24:01;8.25;;;5.07;;
84140;SDS011;74257;52.540;13.416;2023-12-14T00:26:27;9.43;;;5.72;;
84140;SDS011;74257;52.540;13.416;2023-12-14T00:28:53;10.43;;;5.20;;
84140;SDS011;74257;52.540;13.416;2023-12-14T00:31:18;7.57;;;4.80;;
84140;SDS011;74257;52.540;13.416;2023-12-14T00:33:44;9.07;;;4.88;;
84140;SDS011;74257;52.540;13.416;2023-12-14T00:36:16;11.65;;;4.97;;
84140;SDS011;74257;52.540;13.416;2023-12-14T00:38:43;7.63;;;5.05;;
84140;SDS011;74257;52.540;13.416;2023-12-14T00:41:09;8.90;;;5.00;;
84140;SDS011;74257;52.540;13.416;2023-12-14T00:43:35;8.60;;;4.65;;
84140;SDS011;74257;52.540;13.416;2023-12-14T00:46:02;9.20;;;4.95;;
84140;SDS011;74257;52.540;13.416;2023-12-14T00:48:28;8.35;;;4.63;;
84140;SDS011;74257;52.540;13.416;2023-12-14T00:50:54;8.23;;;4.93;;
84140;SDS011;74257;52.540;13.416;2023-12-14T00:53:20;7.00;;;4.90;;
84140;SDS011;74257;52.540;13.416;2023-12-14T00:55:45;7.38;;;4.60;;
84140;SDS011;74257;52.540;13.416;2023-12-14T00:58:11;7.93;;;5.03;;
84140;SDS011;74257;52.540;13.416;2023-12-14T01:00:41;7.65;;;4.80;;
84140;SDS011;74257;52.540;13.416;2023-12-14T01:03:07;9.02;;;4.97;;
84140;SDS011;74257;52.540;13.416;2023-12-14T01:05:33;7.57;;;4.43;;
84140;SDS011;74257;52.540;13.416;2023-12-14T01:07:58;8.15;;;4.70;;
84140;SDS011;74257;52.540;13.416;2023-12-14T01:10:24;8.73;;;4.95;;
84140;SDS011;74257;52.540;13.416;2023-12-14T01:12:50;8.93;;;4.72;;
84140;SDS011;74257;52.540;13.416;2023-12-14T01:15:16;8.77;;;4.70;;
84140;SDS011;74257;52.540;13.416;2023-12-14T01:17:42;6.68;;;4.63;;
84140;SDS011;74257;52.540;13.416;2023-12-14T01:20:08;6.43;;;4.35;;
84140;SDS011;74257;52.540;13.416;2023-12-14T01:22:34;7.07;;;4.40;;
84140;SDS011;74257;52.540;13.416;2023-12-14T01:25:00;7.63;;;4.70;;
84140;SDS011;74257;52.540;13.416;2023-12-14T01:27:26;7.97;;;4.53;;
84140;SDS011;74257;52.540;13.416;2023-12-14T01:29:51;8.95;;;4.43;;
84140;SDS011;74257;52.540;13.416;2023-12-14T01:32:17;7.95;;;4.70;;
84140;SDS011;74257;52.540;13.416;2023-12-14T01:34:44;7.65;;;4.40;;
84140;SDS011;74257;52.540;13.416;2023-12-14T01:37:10;7.30;;;4.35;;
84140;SDS011;74257;52.540;13.416;2023-12-14T01:39:36;6.45;;;4.43;;
84140;SDS011;74257;52.540;13.416;2023-12-14T01:42:02;7.35;;;4.55;;
84140;SDS011;74257;52.540;13.416;2023-12-14T01:44:27;9.02;;;4.95;;
84140;SDS011;74257;52.540;13.416;2023-12-14T01:46:53;6.65;;;4.40;;
84140;SDS011;74257;52.540;13.416;2023-12-14T01:49:19;6.72;;;4.28;;
84140;SDS011;74257;52.540;13.416;2023-12-14T01:51:45;7.35;;;4.47;;
84140;SDS011;74257;52.540;13.416;2023-12-14T01:54:11;9.73;;;4.57;;
84140;SDS011;74257;52.540;13.416;2023-12-14T01:56:36;9.40;;;4.55;;
84140;SDS011;74257;52.540;13.416;2023-12-14T01:59:02;7.40;;;4.18;;
84140;SDS011;74257;52.540;13.416;2023-12-14T02:04:00;8.63;;;4.40;;
84140;SDS011;74257;52.540;13.416;2023-12-14T02:06:26;6.78;;;4.50;;
84140;SDS011;74257;52.540;13.416;2023-12-14T02:08:52;6.93;;;4.20;;
84140;SDS011;74257;52.540;13.416;2023-12-14T02:11:18;6.65;;;4.35;;
84140;SDS011;74257;52.540;13.416;2023-12-14T02:13:44;6.07;;;4.20;;
84140;SDS011;74257;52.540;13.416;2023-12-14T02:16:10;6.28;;;4.25;;
84140;SDS011;74257;52.540;13.416;2023-12-14T02:18:35;10.00;;;4.93;;
84140;SDS011;74257;52.540;13.416;2023-12-14T02:21:02;6.25;;;4.50;;
84140;SDS011;74257;52.540;13.416;2023-12-14T02:23:28;6.28;;;3.90;;
84140;SDS011;74257;52.540;13.416;2023-12-14T02:25:54;6.13;;;4.10;;
84140;SDS011;74257;52.540;13.416;2023-12-14T02:28:19;7.47;;;4.63;;
84140;SDS011;74257;52.540;13.416;2023-12-14T02:30:45;8.32;;;4.28;;
84140;SDS011;74257;52.540;13.416;2023-12-14T02:33:11;8.80;;;4.75;;
84140;SDS011;74257;52.540;13.416;2023-12-14T02:35:37;6.40;;;3.78;;
84140;SDS011;74257;52.540;13.416;2023-12-14T02:38:02;6.65;;;4.00;;
84140;SDS011;74257;52.540;13.416;2023-12-14T02:40:28;6.90;;;4.38;;
84140;SDS011;74257;52.540;13.416;2023-12-14T02:42:54;6.22;;;3.97;;
84140;SDS011;74257;52.540;13.416;2023-12-14T02:45:20;6.38;;;3.75;;
84140;SDS011;74257;52.540;13.416;2023-12-14T02:47:46;6.47;;;4.20;;
84140;SDS011;74257;52.540;13.416;2023-12-14T02:50:13;6.93;;;3.92;;
84140;SDS011;74257;52.540;13.416;2023-12-14T02:52:39;6.28;;;4.28;;
84140;SDS011;74257;52.540;13.416;2023-12-14T02:55:05;6.38;;;4.10;;
84140;SDS011;74257;52.540;13.416;2023-12-14T02:57:31;5.88;;;4.18;;
84140;SDS011;74257;52.540;13.416;2023-12-14T02:59:57;6.50;;;3.88;;
84140;SDS011;74257;52.540;13.416;2023-12-14T03:02:23;7.30;;;4.10;;
84140;SDS011;74257;52.540;13.416;2023-12-14T03:04:49;6.88;;;3.97;;
84140;SDS011;74257;52.540;13.416;2023-12-14T03:07:14;5.55;;;3.78;;
84140;SDS011;74257;52.540;13.416;2023-12-14T03:09:40;5.35;;;4.15;;
84140;SDS011;74257;52.540;13.416;2023-12-14T03:12:08;7.05;;;4.20;;
84140;SDS011;74257;52.540;13.416;2023-12-14T03:14:34;6.88;;;4.00;;
84140;SDS011;74257;52.540;13.416;2023-12-14T03:17:00;6.68;;;3.80;;
84140;SDS011;74257;52.540;13.416;2023-12-14T03:19:26;6.72;;;4.15;;
84140;SDS011;74257;52.540;13.416;2023-12-14T03:21:52;7.00;;;4.47;;
84140;SDS011;74257;52.540;13.416;2023-12-14T03:24:18;7.68;;;4.15;;
84140;SDS011;74257;52.540;13.416;2023-12-14T03:26:43;6.60;;;4.15;;
84140;SDS011;74257;52.540;13.416;2023-12-14T03:29:09;6.03;;;3.83;;
84140;SDS011;74257;52.540;13.416;2023-12-14T03:31:35;6.20;;;3.83;;
84140;SDS011;74257;52.540;13.416;2023-12-14T03:34:01;6.38;;;3.83;;
84140;SDS011;74257;52.540;13.416;2023-12-14T03:36:27;5.90;;;3.60;;
84140;SDS011;74257;52.540;13.416;2023-12-14T03:38:54;6.35;;;4.13;;
84140;SDS011;74257;52.540;13.416;2023-12-14T03:41:19;5.07;;;3.58;;
84140;SDS011;74257;52.540;13.416;2023-12-14T03:43:45;6.80;;;4.03;;
84140;SDS011;74257;52.540;13.416;2023-12-14T03:46:11;4.70;;;3.42;;
84140;SDS011;74257;52.540;13.416;2023-12-14T03:48:37;5.50;;;3.85;;
84140;SDS011;74257;52.540;13.416;2023-12-14T03:51:05;6.18;;;3.85;;
84140;SDS011;74257;52.540;13.416;2023-12-14T03:56:00;6.70;;;3.92;;
84140;SDS011;74257;52.540;13.416;2023-12-14T03:58:26;6.53;;;3.80;;
84140;SDS011;74257;52.540;13.416;2023-12-14T04:00:52;5.43;;;3.58;;
84140;SDS011;74257;52.540;13.416;2023-12-14T04:03:18;6.03;;;3.72;;
84140;SDS011;74257;52.540;13.416;2023-12-14T04:05:44;5.80;;;4.10;;
84140;SDS011;74257;52.540;13.416;2023-12-14T04:08:10;4.78;;;3.40;;
84140;SDS011;74257;52.540;13.416;2023-12-14T04:10:35;6.60;;;3.60;;
84140;SDS011;74257;52.540;13.416;2023-12-14T04:13:01;6.13;;;3.63;;
84140;SDS011;74257;52.540;13.416;2023-12-14T04:15:27;5.20;;;3.33;;
84140;SDS011;74257;52.540;13.416;2023-12-14T04:17:53;6.18;;;3.45;;
84140;SDS011;74257;52.540;13.416;2023-12-14T04:20:19;7.03;;;4.15;;
84140;SDS011;74257;52.540;13.416;2023-12-14T04:22:45;5.45;;;3.83;;
84140;SDS011;74257;52.540;13.416;2023-12-14T04:25:10;5.80;;;3.50;;
84140;SDS011;74257;52.540;13.416;2023-12-14T04:27:36;5.10;;;3.60;;
84140;SDS011;74257;52.540;13.416;2023-12-14T04:30:02;5.90;;;3.67;;
84140;SDS011;74257;52.540;13.416;2023-12-14T04:32:30;4.70;;;3.42;;
84140;SDS011;74257;52.540;13.416;2023-12-14T04:34:55;4.63;;;3.17;;
84140;SDS011;74257;52.540;13.416;2023-12-14T04:37:21;6.45;;;3.75;;
84140;SDS011;74257;52.540;13.416;2023-12-14T04:39:47;4.65;;;3.30;;
84140;SDS011;74257;52.540;13.416;2023-12-14T04:42:13;5.78;;;3.53;;
84140;SDS011;74257;52.540;13.416;2023-12-14T04:44:38;5.05;;;3.60;;
84140;SDS011;74257;52.540;13.416;2023-12-14T04:47:04;5.00;;;3.42;;
84140;SDS011;74257;52.540;13.416;2023-12-14T04:49:30;4.78;;;3.45;;
84140;SDS011;74257;52.540;13.416;2023-12-14T04:51:56;5.35;;;3.13;;
84140;SDS011;74257;52.540;13.416;2023-12-14T04:54:22;5.25;;;3.25;;
84140;SDS011;74257;52.540;13.416;2023-12-14T04:56:48;6.07;;;3.22;;
84140;SDS011;74257;52.540;13.416;2023-12-14T04:59:13;6.03;;;3.50;;
84140;SDS011;74257;52.540;13.416;2023-12-14T05:01:39;5.75;;;3.88;;
84140;SDS011;74257;52.540;13.416;2023-12-14T05:04:05;5.90;;;3.55;;
84140;SDS011;74257;52.540;13.416;2023-12-14T05:06:31;5.75;;;3.50;;
84140;SDS011;74257;52.540;13.416;2023-12-14T05:08:58;6.65;;;3.35;;
84140;SDS011;74257;52.540;13.416;2023-12-14T05:11:26;5.90;;;3.22;;
84140;SDS011;74257;52.540;13.416;2023-12-14T05:13:52;4.25;;;3.00;;
84140;SDS011;74257;52.540;13.416;2023-12-14T05:16:18;6.15;;;3.15;;
84140;SDS011;74257;52.540;13.416;2023-12-14T05:18:44;5.63;;;3.38;;
84140;SDS011;74257;52.540;13.416;2023-12-14T05:21:09;4.25;;;3.10;;
84140;SDS011;74257;52.540;13.416;2023-12-14T05:23:41;5.68;;;3.40;;
84140;SDS011;74257;52.540;13.416;2023-12-14T05:26:07;5.07;;;3.10;;
84140;SDS011;74257;52.540;13.416;2023-12-14T05:28:32;6.25;;;3.00;;
84140;SDS011;74257;52.540;13.416;2023-12-14T05:30:58;4.43;;;3.20;;
84140;SDS011;74257;52.540;13.416;2023-12-14T05:33:24;5.80;;;3.50;;
84140;SDS011;74257;52.540;13.416;2023-12-14T05:35:50;4.25;;;3.15;;
84140;SDS011;74257;52.540;13.416;2023-12-14T05:38:15;5.78;;;3.60;;
84140;SDS011;74257;52.540;13.416;2023-12-14T05:40:41;4.93;;;3.10;;
84140;SDS011;74257;52.540;13.416;2023-12-14T05:43:07;3.67;;;2.60;;
84140;SDS011;74257;52.540;13.416;2023-12-14T05:45:33;5.65;;;3.20;;
84140;SDS011;74257;52.540;13.416;2023-12-14T05:47:59;4.95;;;3.00;;
84140;SDS011;74257;52.540;13.416;2023-12-14T05:50:25;4.47;;;3.00;;
84140;SDS011;74257;52.540;13.416;2023-12-14T05:52:50;5.82;;;3.22;;
84140;SDS011;74257;52.540;13.416;2023-12-14T05:55:16;6.07;;;3.42;;
84140;SDS011;74257;52.540;13.416;2023-12-14T05:57:47;5.05;;;3.00;;
84140;SDS011;74257;52.540;13.416;2023-12-14T06:00:13;5.28;;;3.00;;
84140;SDS011;74257;52.540;13.416;2023-12-14T06:02:39;4.45;;;3.17;;
84140;SDS011;74257;52.540;13.416;2023-12-14T06:05:06;5.55;;;3.40;;
84140;SDS011;74257;52.540;13.416;2023-12-14T06:07:32;4.65;;;3.05;;
84140;SDS011;74257;52.540;13.416;2023-12-14T06:09:59;5.68;;;3.10;;
84140;SDS011;74257;52.540;13.416;2023-12-14T06:12:26;4.50;;;3.20;;
84140;SDS011;74257;52.540;13.416;2023-12-14T06:14:52;5.65;;;2.95;;
84140;SDS011;74257;52.540;13.416;2023-12-14T06:17:18;12.65;;;3.78;;
84140;SDS011;74257;52.540;13.416;2023-12-14T06:19:44;6.72;;;3.30;;
84140;SDS011;74257;52.540;13.416;2023-12-14T06:22:10;8.75;;;3.25;;
84140;SDS011;74257;52.540;13.416;2023-12-14T06:24:36;10.48;;;3.60;;
84140;SDS011;74257;52.540;13.416;2023-12-14T06:27:01;5.20;;;2.90;;
84140;SDS011;74257;52.540;13.416;2023-12-14T06:29:27;5.78;;;3.03;;
84140;SDS011;74257;52.540;13.416;2023-12-14T06:31:53;4.85;;;2.90;;
84140;SDS011;74257;52.540;13.416;2023-12-14T06:34:19;6.30;;;2.90;;
84140;SDS011;74257;52.540;13.416;2023-12-14T06:36:45;5.10;;;3.10;;
84140;SDS011;74257;52.540;13.416;2023-12-14T06:39:11;4.47;;;3.08;;
84140;SDS011;74257;52.540;13.416;2023-12-14T06:41:37;5.93;;;3.38;;
84140;SDS011;74257;52.540;13.416;2023-12-14T06:44:03;5.82;;;3.50;;
84140;SDS011;74257;52.540;13.416;2023-12-14T06:46:29;9.52;;;3.75;;
84140;SDS011;74257;52.540;13.416;2023-12-14T06:48:54;5.68;;;3.08;;
84140;SDS011;74257;52.540;13.416;2023-12-14T06:51:23;10.07;;;3.42;;
84140;SDS011;74257;52.540;13.416;2023-12-14T06:53:49;7.55;;;3.53;;
84140;SDS011;74257;52.540;13.416;2023-12-14T06:56:15;9.40;;;4.00;;
84140;SDS011;74257;52.540;13.416;2023-12-14T06:58:42;8.43;;;3.22;;
84140;SDS011;74257;52.540;13.416;2023-12-14T07:01:15;9.00;;;3.50;;
84140;SDS011;74257;52.540;13.416;2023-12-14T07:03:42;11.63;;;3.20;;
84140;SDS011;74257;52.540;13.416;2023-12-14T07:06:12;6.63;;;3.13;;
84140;SDS011;74257;52.540;13.416;2023-12-14T07:08:39;7.18;;;3.45;;
84140;SDS011;74257;52.540;13.416;2023-12-14T07:11:06;6.88;;;3.05;;
84140;SDS011;74257;52.540;13.416;2023-12-14T07:13:33;7.55;;;3.20;;
84140;SDS011;74257;52.540;13.416;2023-12-14T07:15:59;11.32;;;3.30;;
84140;SDS011;74257;52.540;13.416;2023-12-14T07:18:25;10.60;;;3.25;;
84140;SDS011;74257;52.540;13.416;2023-12-14T07:20:50;11.43;;;3.35;;
84140;SDS011;74257;52.540;13.416;2023-12-14T07:23:16;8.30;;;3.80;;
84140;SDS011;74257;52.540;13.416;2023-12-14T07:25:42;8.50;;;3.95;;
84140;SDS011;74257;52.540;13.416;2023-12-14T07:28:08;7.82;;;3.40;;
84140;SDS011;74257;52.540;13.416;2023-12-14T07:30:34;6.68;;;3.47;;
84140;SDS011;74257;52.540;13.416;2023-12-14T07:33:00;7.30;;;3.28;;
84140;SDS011;74257;52.540;13.416;2023-12-14T07:35:26;10.82;;;3.50;;
84140;SDS011;74257;52.540;13.416;2023-12-14T07:37:52;9.52;;;3.30;;
84140;SDS011;74257;52.540;13.416;2023-12-14T07:40:17;6.45;;;3.53;;
84140;SDS011;74257;52.540;13.416;2023-12-14T07:42:43;6.75;;;3.03;;
84140;SDS011;74257;52.540;13.416;2023-12-14T07:45:09;7.85;;;3.55;;
84140;SDS011;74257;52.540;13.416;2023-12-14T07:47:35;8.35;;;3.70;;
84140;SDS011;74257;52.540;13.416;2023-12-14T07:50:02;8.00;;;3.30;;
84140;SDS011;74257;52.540;13.416;2023-12-14T07:52:29;6.93;;;3.28;;
84140;SDS011;74257;52.540;13.416;2023-12-14T07:54:54;6.50;;;3.13;;
84140;SDS011;74257;52.540;13.416;2023-12-14T07:57:20;5.32;;;2.92;;
84140;SDS011;74257;52.540;13.416;2023-12-14T07:59:46;7.47;;;3.40;;
84140;SDS011;74257;52.540;13.416;2023-12-14T08:02:12;4.72;;;3.10;;
84140;SDS011;74257;52.540;13.416;2023-12-14T08:04:38;5.05;;;3.10;;
84140;SDS011;74257;52.540;13.416;2023-12-14T08:07:04;8.73;;;3.42;;
84140;SDS011;74257;52.540;13.416;2023-12-14T08:09:30;8.77;;;3.40;;
84140;SDS011;74257;52.540;13.416;2023-12-14T08:11:57;6.68;;;3.40;;
84140;SDS011;74257;52.540;13.416;2023-12-14T08:14:22;7.68;;;3.80;;
84140;SDS011;74257;52.540;13.416;2023-12-14T08:16:48;7.70;;;3.05;;
84140;SDS011;74257;52.540;13.416;2023-12-14T08:19:14;9.80;;;3.55;;
84140;SDS011;74257;52.540;13.416;2023-12-14T08:21:40;6.10;;;3.50;;
84140;SDS011;74257;52.540;13.416;2023-12-14T08:24:06;6.75;;;3.35;;
84140;SDS011;74257;52.540;13.416;2023-12-14T08:26:32;6.93;;;3.10;;
84140;SDS011;74257;52.540;13.416;2023-12-14T08:28:58;8.57;;;3.35;;
84140;SDS011;74257;52.540;13.416;2023-12-14T08:31:24;5.28;;;3.20;;
84140;SDS011;74257;52.540;13.416;2023-12-14T08:33:51;8.38;;;3.53;;
84140;SDS011;74257;52.540;13.416;2023-12-14T08:36:17;7.60;;;2.88;;
84140;SDS011;74257;52.540;13.416;2023-12-14T08:38:43;7.47;;;3.55;;
84140;SDS011;74257;52.540;13.416;2023-12-14T08:41:13;5.07;;;2.83;;
84140;SDS011;74257;52.540;13.416;2023-12-14T08:43:39;5.65;;;3.20;;
84140;SDS011;74257;52.540;13.416;2023-12-14T08:46:05;5.38;;;2.88;;
84140;SDS011;74257;52.540;13.416;2023-12-14T08:48:31;10.90;;;3.45;;
84140;SDS011;74257;52.540;13.416;2023-12-14T08:50:57;10.18;;;3.95;;
84140;SDS011;74257;52.540;13.416;2023-12-14T08:53:22;8.25;;;3.70;;
84140;SDS011;74257;52.540;13.416;2023-12-14T08:55:48;7.90;;;3.60;;
84140;SDS011;74257;52.540;13.416;2023-12-14T08:58:14;5.55;;;3.50;;
84140;SDS011;74257;52.540;13.416;2023-12-14T09:00:40;7.78;;;3.40;;
84140;SDS011;74257;52.540;13.416;2023-12-14T09:03:06;10.13;;;4.22;;
84140;SDS011;74257;52.540;13.416;2023-12-14T09:05:31;7.65;;;4.05;;
84140;SDS011;74257;52.540;13.416;2023-12-14T09:07:57;6.30;;;3.90;;
84140;SDS011;74257;52.540;13.416;2023-12-14T09:10:24;13.73;;;4.32;;
84140;SDS011;74257;52.540;13.416;2023-12-14T09:12:51;12.27;;;4.03;;
84140;SDS011;74257;52.540;13.416;2023-12-14T09:15:17;8.63;;;4.05;;
84140;SDS011;74257;52.540;13.416;2023-12-14T09:17:42;10.85;;;4.30;;
84140;SDS011;74257;52.540;13.416;2023-12-14T09:20:08;11.32;;;4.15;;
84140;SDS011;74257;52.540;13.416;2023-12-14T09:22:34;11.35;;;4.20;;
84140;SDS011;74257;52.540;13.416;2023-12-14T09:25:01;21.83;;;4.85;;
84140;SDS011;74257;52.540;13.416;2023-12-14T09:27:26;17.02;;;5.90;;
84140;SDS011;74257;52.540;13.416;2023-12-14T09:29:52;21.60;;;8.05;;
84140;SDS011;74257;52.540;13.416;2023-12-14T09:32:18;20.65;;;11.05;;
84140;SDS011;74257;52.540;13.416;2023-12-14T09:34:44;27.55;;;15.50;;
84140;SDS011;74257;52.540;13.416;2023-12-14T09:37:10;36.53;;;18.05;;
84140;SDS011;74257;52.540;13.416;2023-12-14T09:39:36;36.28;;;19.17;;
84140;SDS011;74257;52.540;13.416;2023-12-14T09:42:05;39.90;;;20.58;;
84140;SDS011;74257;52.540;13.416;2023-12-14T09:44:32;41.40;;;20.30;;
84140;SDS011;74257;52.540;13.416;2023-12-14T09:47:00;35.45;;;21.23;;
84140;SDS011;74257;52.540;13.416;2023-12-14T09:49:28;41.20;;;22.23;;
84140;SDS011;74257;52.540;13.416;2023-12-14T09:51:58;36.67;;;20.38;;
84140;SDS011;74257;52.540;13.416;2023-12-14T09:54:26;41.40;;;21.35;;
84140;SDS011;74257;52.540;13.416;2023-12-14T09:56:52;45.22;;;21.33;;
84140;SDS011;74257;52.540;13.416;2023-12-14T09:59:19;36.05;;;19.73;;
84140;SDS011;74257;52.540;13.416;2023-12-14T10:01:45;35.90;;;19.25;;
84140;SDS011;74257;52.540;13.416;2023-12-14T10:06:43;28.60;;;18.10;;
84140;SDS011;74257;52.540;13.416;2023-12-14T10:09:10;33.75;;;17.75;;
84140;SDS011;74257;52.540;13.416;2023-12-14T10:11:41;38.72;;;17.70;;
84140;SDS011;74257;52.540;13.416;2023-12-14T10:14:18;33.20;;;17.17;;
84140;SDS011;74257;52.540;13.416;2023-12-14T10:16:48;36.50;;;17.65;;
84140;SDS011;74257;52.540;13.416;2023-12-14T10:19:16;30.33;;;16.55;;
84140;SDS011;74257;52.540;13.416;2023-12-14T10:21:42;30.58;;;15.15;;
84140;SDS011;74257;52.540;13.416;2023-12-14T10:24:08;29.40;;;15.65;;
84140;SDS011;74257;52.540;13.416;2023-12-14T10:26:34;28.88;;;14.70;;
84140;SDS011;74257;52.540;13.416;2023-12-14T10:29:01;29.23;;;15.02;;
84140;SDS011;74257;52.540;13.416;2023-12-14T10:31:32;28.38;;;13.27;;
84140;SDS011;74257;52.540;13.416;2023-12-14T10:34:03;31.45;;;13.77;;
84140;SDS011;74257;52.540;13.416;2023-12-14T10:36:29;28.70;;;13.57;;
84140;SDS011;74257;52.540;13.416;2023-12-14T10:38:57;28.85;;;16.02;;
84140;SDS011;74257;52.540;13.416;2023-12-14T10:41:24;30.55;;;17.77;;
84140;SDS011;74257;52.540;13.416;2023-12-14T10:43:51;41.50;;;19.77;;
84140;SDS011;74257;52.540;13.416;2023-12-14T10:46:20;36.95;;;21.05;;
84140;SDS011;74257;52.540;13.416;2023-12-14T10:48:47;36.70;;;19.80;;
84140;SDS011;74257;52.540;13.416;2023-12-14T10:51:14;41.90;;;21.10;;
84140;SDS011;74257;52.540;13.416;2023-12-14T10:53:43;36.75;;;20.25;;
84140;SDS011;74257;52.540;13.416;2023-12-14T10:56:12;37.72;;;20.20;;
84140;SDS011;74257;52.540;13.416;2023-12-14T10:58:51;39.15;;;18.92;;
84140;SDS011;74257;52.540;13.416;2023-12-14T11:01:19;38.00;;;18.80;;
84140;SDS011;74257;52.540;13.416;2023-12-14T11:03:48;36.78;;;18.95;;
84140;SDS011;74257;52.540;13.416;2023-12-14T11:06:36;30.85;;;18.23;;
84140;SDS011;74257;52.540;13.416;2023-12-14T11:11:42;27.13;;;17.13;;
84140;SDS011;74257;52.540;13.416;2023-12-14T11:14:19;27.80;;;17.48;;
84140;SDS011;74257;52.540;13.416;2023-12-14T11:16:47;33.53;;;17.42;;
84140;SDS011;74257;52.540;13.416;2023-12-14T11:21:48;41.42;;;19.23;;
84140;SDS011;74257;52.540;13.416;2023-12-14T11:24:36;33.45;;;18.20;;
84140;SDS011;74257;52.540;13.416;2023-12-14T11:27:05;40.05;;;17.63;;
84140;SDS011;74257;52.540;13.416;2023-12-14T11:29:33;42.17;;;17.60;;
84140;SDS011;74257;52.540;13.416;2023-12-14T11:32:00;45.40;;;18.25;;
84140;SDS011;74257;52.540;13.416;2023-12-14T11:34:27;38.83;;;17.90;;
84140;SDS011;74257;52.540;13.416;2023-12-14T11:36:56;34.83;;;15.32;;
84140;SDS011;74257;52.540;13.416;2023-12-14T11:39:22;35.83;;;16.67;;
84140;SDS011;74257;52.540;13.416;2023-12-14T11:42:03;29.00;;;15.82;;
84140;SDS011;74257;52.540;13.416;2023-12-14T11:44:30;39.55;;;16.50;;
84140;SDS011;74257;52.540;13.416;2023-12-14T11:46:56;31.95;;;15.60;;
84140;SDS011;74257;52.540;13.416;2023-12-14T11:49:25;23.73;;;13.90;;
84140;SDS011;74257;52.540;13.416;2023-12-14T11:51:52;28.58;;;12.25;;
84140;SDS011;74257;52.540;13.416;2023-12-14T11:54:19;24.02;;;11.48;;
84140;SDS011;74257;52.540;13.416;2023-12-14T11:56:46;15.63;;;9.60;;
84140;SDS011;74257;52.540;13.416;2023-12-14T11:59:14;13.02;;;8.77;;
84140;SDS011;74257;52.540;13.416;2023-12-14T12:01:55;14.32;;;7.93;;
84140;SDS011;74257;52.540;13.416;2023-12-14T12:04:22;11.48;;;7.55;;
84140;SDS011;74257;52.540;13.416;2023-12-14T12:06:49;12.70;;;7.45;;
84140;SDS011;74257;52.540;13.416;2023-12-14T12:09:31;16.33;;;6.85;;
84140;SDS011;74257;52.540;13.416;2023-12-14T12:12:06;11.48;;;7.00;;
84140;SDS011;74257;52.540;13.416;2023-12-14T12:14:33;10.30;;;6.68;;
84140;SDS011;74257;52.540;13.416;2023-12-14T12:16:59;14.93;;;6.50;;
84140;SDS011;74257;52.540;13.416;2023-12-14T12:19:25;11.85;;;6.82;;
84140;SDS011;74257;52.540;13.416;2023-12-14T12:21:50;9.43;;;6.10;;
84140;SDS011;74257;52.540;13.416;2023-12-14T12:24:17;19.85;;;7.10;;
84140;SDS011;74257;52.540;13.416;2023-12-14T12:26:42;11.10;;;5.70;;
84140;SDS011;74257;52.540;13.416;2023-12-14T12:29:08;11.30;;;5.90;;
84140;SDS011;74257;52.540;13.416;2023-12-14T12:31:34;13.23;;;6.28;;
84140;SDS011;74257;52.540;13.416;2023-12-14T12:34:00;21.05;;;6.95;;
84140;SDS011;74257;52.540;13.416;2023-12-14T12:36:26;13.20;;;6.85;;
84140;SDS011;74257;52.540;13.416;2023-12-14T12:38:52;16.75;;;5.97;;
84140;SDS011;74257;52.540;13.416;2023-12-14T12:41:17;24.08;;;7.20;;
84140;SDS011;74257;52.540;13.416;2023-12-14T12:43:44;15.52;;;6.45;;
84140;SDS011;74257;52.540;13.416;2023-12-14T12:46:09;24.17;;;6.50;;
84140;SDS011;74257;52.540;13.416;2023-12-14T12:48:36;19.13;;;6.88;;
84140;SDS011;74257;52.540;13.416;2023-12-14T12:51:02;17.70;;;5.80;;
84140;SDS011;74257;52.540;13.416;2023-12-14T12:53:28;17.83;;;6.22;;
84140;SDS011;74257;52.540;13.416;2023-12-14T12:55:54;15.90;;;6.10;;
84140;SDS011;74257;52.540;13.416;2023-12-14T12:58:20;20.00;;;6.57;;
84140;SDS011;74257;52.540;13.416;2023-12-14T13:00:45;18.15;;;6.05;;
84140;SDS011;74257;52.540;13.416;2023-12-14T13:03:11;24.33;;;6.65;;
84140;SDS011;74257;52.540;13.416;2023-12-14T13:05:38;15.77;;;5.95;;
84140;SDS011;74257;52.540;13.416;2023-12-14T13:08:03;12.70;;;5.82;;
84140;SDS011;74257;52.540;13.416;2023-12-14T13:10:29;20.13;;;7.63;;
84140;SDS011;74257;52.540;13.416;2023-12-14T13:12:55;22.50;;;6.10;;
84140;SDS011;74257;52.540;13.416;2023-12-14T13:15:22;23.85;;;6.70;;
84140;SDS011;74257;52.540;13.416;2023-12-14T13:17:52;25.52;;;6.55;;
84140;SDS011;74257;52.540;13.416;2023-12-14T13:20:18;17.13;;;5.88;;
84140;SDS011;74257;52.540;13.416;2023-12-14T13:22:45;17.75;;;7.03;;
84140;SDS011;74257;52.540;13.416;2023-12-14T13:25:10;14.73;;;6.13;;
84140;SDS011;74257;52.540;13.416;2023-12-14T13:27:36;15.45;;;6.30;;
84140;SDS011;74257;52.540;13.416;2023-12-14T13:30:03;17.80;;;6.65;;
84140;SDS011;74257;52.540;13.416;2023-12-14T13:32:29;20.05;;;5.88;;
84140;SDS011;74257;52.540;13.416;2023-12-14T13:34:55;19.70;;;6.82;;
84140;SDS011;74257;52.540;13.416;2023-12-14T13:37:21;19.55;;;6.28;;
84140;SDS011;74257;52.540;13.416;2023-12-14T13:39:47;16.63;;;6.18;;
84140;SDS011;74257;52.540;13.416;2023-12-14T13:42:14;13.40;;;6.22;;
84140;SDS011;74257;52.540;13.416;2023-12-14T13:44:41;19.13;;;6.47;;
84140;SDS011;74257;52.540;13.416;2023-12-14T13:47:07;26.63;;;6.93;;
84140;SDS011;74257;52.540;13.416;2023-12-14T13:49:33;22.38;;;6.55;;
84140;SDS011;74257;52.540;13.416;2023-12-14T13:51:59;16.75;;;6.25;;
84140;SDS011;74257;52.540;13.416;2023-12-14T13:54:25;23.70;;;6.72;;
84140;SDS011;74257;52.540;13.416;2023-12-14T13:56:51;21.08;;;7.00;;
84140;SDS011;74257;52.540;13.416;2023-12-14T13:59:18;25.08;;;6.30;;
84140;SDS011;74257;52.540;13.416;2023-12-14T14:01:45;20.77;;;6.05;;
84140;SDS011;74257;52.540;13.416;2023-12-14T14:04:10;26.73;;;5.95;;
84140;SDS011;74257;52.540;13.416;2023-12-14T14:06:36;19.15;;;6.05;;
84140;SDS011;74257;52.540;13.416;2023-12-14T14:09:02;23.02;;;6.57;;
84140;SDS011;74257;52.540;13.416;2023-12-14T14:11:29;22.35;;;6.32;;
84140;SDS011;74257;52.540;13.416;2023-12-14T14:13:55;23.60;;;6.63;;
84140;SDS011;74257;52.540;13.416;2023-12-14T14:16:21;15.82;;;6.15;;
84140;SDS011;74257;52.540;13.416;2023-12-14T14:18:46;19.70;;;5.93;;
84140;SDS011;74257;52.540;13.416;2023-12-14T14:21:12;14.98;;;6.22;;
84140;SDS011;74257;52.540;13.416;2023-12-14T14:23:38;13.38;;;5.07;;
84140;SDS011;74257;52.540;13.416;2023-12-14T14:26:04;17.55;;;6.00;;
84140;SDS011;74257;52.540;13.416;2023-12-14T14:28:30;22.02;;;5.70;;
84140;SDS011;74257;52.540;13.416;2023-12-14T14:30:56;22.30;;;6.13;;
84140;SDS011;74257;52.540;13.416;2023-12-14T14:33:22;19.70;;;6.15;;
84140;SDS011;74257;52.540;13.416;2023-12-14T14:35:48;16.75;;;6.05;;
84140;SDS011;74257;52.540;13.416;2023-12-14T14:38:15;20.25;;;6.15;;